Time;durP1;ratioP1;P1;durP2;ratioP2;P2;SDS_P1;SDS_P2;PMS_P1;PMS_P2;Temp;Humidity;BMP_temperature;BMP_pressure;BME280_temperature;BME280_humidity;BME280_pressure;Samples;Min_cycle;Max_cycle;Signal;HPM_P1;HPM_P2
2021/10/15 00:00:46;;;;;;;9.63;5.18;;;;;;;;;;5003823;28;20091;-71
2021/10/15 00:03:32;;;;;;;10.60;6.45;;;;;;;;;;5031039;28;20033;-71
2021/10/15 00:06:18;;;;;;;11.80;6.60;;;;;;;;;;5014944;28;20058;-71
2021/10/15 00:09:03;;;;;;;8.93;5.57;;;;;;;;;;5034921;28;20402;-71
2021/10/15 00:11:49;;;;;;;9.15;5.78;;;;;;;;;;5034491;28;20040;-71
2021/10/15 00:14:34;;;;;;;10.77;5.45;;;;;;;;;;5035265;28;20030;-73
2021/10/15 00:17:20;;;;;;;10.50;7.00;;;;;;;;;;5034396;28;20156;-73
2021/10/15 00:20:06;;;;;;;11.93;6.25;;;;;;;;;;5035174;28;20026;-73
2021/10/15 00:22:52;;;;;;;9.60;6.85;;;;;;;;;;5036550;28;20424;-73
2021/10/15 00:25:37;;;;;;;9.23;5.70;;;;;;;;;;5020888;28;20025;-74
2021/10/15 00:28:23;;;;;;;17.60;7.68;;;;;;;;;;5023041;28;20072;-73
2021/10/15 00:31:09;;;;;;;8.90;5.78;;;;;;;;;;5015730;28;20033;-69
2021/10/15 00:33:55;;;;;;;10.70;6.10;;;;;;;;;;5034481;28;20033;-66
2021/10/15 00:36:40;;;;;;;9.57;6.05;;;;;;;;;;5036022;28;20055;-66
2021/10/15 00:39:26;;;;;;;8.32;6.00;;;;;;;;;;5035754;28;20057;-66
2021/10/15 00:42:11;;;;;;;10.93;6.20;;;;;;;;;;5035934;28;20489;-67
2021/10/15 00:44:57;;;;;;;9.23;5.78;;;;;;;;;;5036649;28;20438;-67
2021/10/15 00:47:43;;;;;;;8.60;5.85;;;;;;;;;;5033300;28;20123;-67
2021/10/15 00:50:28;;;;;;;10.25;7.00;;;;;;;;;;5014713;28;20092;-72
2021/10/15 00:53:14;;;;;;;10.77;5.45;;;;;;;;;;5016389;28;20480;-72
2021/10/15 00:56:00;;;;;;;11.50;5.55;;;;;;;;;;5014992;28;20037;-72
2021/10/15 00:58:45;;;;;;;12.90;6.00;;;;;;;;;;5034286;28;20044;-72
2021/10/15 01:01:31;;;;;;;9.20;5.78;;;;;;;;;;5035883;28;20026;-72
2021/10/15 01:04:17;;;;;;;9.75;5.20;;;;;;;;;;5030850;28;20040;-72
2021/10/15 01:07:03;;;;;;;8.95;5.57;;;;;;;;;;5034685;28;20029;-67
2021/10/15 01:09:49;;;;;;;8.40;5.53;;;;;;;;;;5017686;28;20385;-75
2021/10/15 01:12:35;;;;;;;9.38;6.15;;;;;;;;;;5036925;28;20468;-74
2021/10/15 01:15:20;;;;;;;10.73;5.95;;;;;;;;;;5034463;28;20073;-75
2021/10/15 01:18:09;;;;;;;11.27;6.55;;;;;;;;;;5020011;28;20116;-74
2021/10/15 01:20:55;;;;;;;10.70;5.72;;;;;;;;;;5014058;28;20057;-74
2021/10/15 01:23:41;;;;;;;11.82;6.78;;;;;;;;;;5015770;28;20044;-74
2021/10/15 01:26:26;;;;;;;9.35;6.45;;;;;;;;;;5014563;28;20034;-72
2021/10/15 01:29:12;;;;;;;10.15;6.57;;;;;;;;;;5003691;28;20092;-70
2021/10/15 01:31:58;;;;;;;8.63;5.93;;;;;;;;;;5030548;28;20086;-71
2021/10/15 01:34:45;;;;;;;9.35;5.38;;;;;;;;;;5013375;28;20479;-70
2021/10/15 01:37:30;;;;;;;8.43;5.45;;;;;;;;;;5000600;28;20030;-69
2021/10/15 01:40:16;;;;;;;11.00;6.95;;;;;;;;;;5013736;28;20030;-70
2021/10/15 01:43:01;;;;;;;10.32;6.65;;;;;;;;;;5014169;28;20388;-70
2021/10/15 01:45:47;;;;;;;11.38;6.70;;;;;;;;;;5029397;28;20095;-71
2021/10/15 01:48:33;;;;;;;8.48;5.78;;;;;;;;;;5019573;28;20025;-70
2021/10/15 01:51:18;;;;;;;10.65;6.18;;;;;;;;;;5030256;28;20029;-69
2021/10/15 01:54:05;;;;;;;9.43;6.43;;;;;;;;;;5034495;28;20025;-69
2021/10/15 01:56:50;;;;;;;10.32;6.47;;;;;;;;;;5031179;28;20103;-69
2021/10/15 01:59:36;;;;;;;11.57;7.72;;;;;;;;;;5031334;28;20026;-69
2021/10/15 02:02:21;;;;;;;9.90;6.53;;;;;;;;;;5017294;28;20120;-65
2021/10/15 02:05:08;;;;;;;10.27;6.65;;;;;;;;;;5034774;28;20025;-65
2021/10/15 02:07:54;;;;;;;10.10;7.15;;;;;;;;;;5033004;28;20032;-65
2021/10/15 02:10:39;;;;;;;8.55;7.07;;;;;;;;;;5035138;28;20033;-64
2021/10/15 02:13:25;;;;;;;11.68;8.20;;;;;;;;;;5035204;28;20429;-65
2021/10/15 02:16:10;;;;;;;15.85;7.47;;;;;;;;;;5034269;28;20061;-66
2021/10/15 02:18:56;;;;;;;11.32;6.78;;;;;;;;;;5034019;28;20029;-65
2021/10/15 02:21:41;;;;;;;11.30;7.07;;;;;;;;;;5010754;28;20030;-71
2021/10/15 02:24:27;;;;;;;11.82;7.15;;;;;;;;;;5000325;28;20022;-65
2021/10/15 02:27:12;;;;;;;15.73;7.30;;;;;;;;;;5012857;28;20044;-65
2021/10/15 02:29:58;;;;;;;11.57;7.38;;;;;;;;;;5013568;28;20469;-66
2021/10/15 02:32:44;;;;;;;12.77;7.40;;;;;;;;;;4998797;28;20041;-66
2021/10/15 02:35:30;;;;;;;11.07;7.00;;;;;;;;;;5002508;28;20798;-65
2021/10/15 02:38:16;;;;;;;11.80;8.13;;;;;;;;;;5029180;28;20037;-65
2021/10/15 02:41:01;;;;;;;12.48;6.88;;;;;;;;;;5012833;28;20045;-71
2021/10/15 02:43:47;;;;;;;13.73;7.45;;;;;;;;;;5012787;28;20457;-74
2021/10/15 02:46:32;;;;;;;12.43;6.85;;;;;;;;;;5024976;28;20189;-74
2021/10/15 02:49:18;;;;;;;10.40;6.28;;;;;;;;;;5009985;28;20037;-74
2021/10/15 02:52:03;;;;;;;9.48;6.38;;;;;;;;;;5002925;28;20048;-74
2021/10/15 02:54:49;;;;;;;9.20;6.20;;;;;;;;;;5009837;28;20037;-73
2021/10/15 02:57:35;;;;;;;8.20;6.00;;;;;;;;;;4998760;28;20033;-66
2021/10/15 03:00:20;;;;;;;9.40;5.80;;;;;;;;;;5029409;28;20045;-67
2021/10/15 03:03:06;;;;;;;10.52;5.88;;;;;;;;;;5012168;28;20021;-67
2021/10/15 03:05:51;;;;;;;8.15;5.65;;;;;;;;;;5012406;28;20132;-67
2021/10/15 03:08:37;;;;;;;9.00;6.45;;;;;;;;;;5011803;28;20034;-69
2021/10/15 03:11:22;;;;;;;7.70;5.57;;;;;;;;;;5027926;28;20356;-67
2021/10/15 03:14:08;;;;;;;9.32;6.38;;;;;;;;;;5012728;28;20022;-67
2021/10/15 03:16:54;;;;;;;8.88;5.90;;;;;;;;;;5010818;28;20465;-67
2021/10/15 03:19:39;;;;;;;9.70;6.15;;;;;;;;;;5027198;28;20030;-70
2021/10/15 03:22:25;;;;;;;9.38;6.13;;;;;;;;;;5033292;28;20025;-70
2021/10/15 03:25:10;;;;;;;10.48;7.43;;;;;;;;;;5032763;28;20030;-71
2021/10/15 03:27:56;;;;;;;8.93;5.45;;;;;;;;;;5009576;28;20034;-71
2021/10/15 03:30:42;;;;;;;13.02;6.97;;;;;;;;;;5014134;28;20381;-70
2021/10/15 03:33:27;;;;;;;16.35;6.15;;;;;;;;;;5003323;28;20028;-72
2021/10/15 03:36:13;;;;;;;12.18;6.70;;;;;;;;;;5028661;28;20029;-66
2021/10/15 03:38:58;;;;;;;13.25;6.97;;;;;;;;;;4998188;28;20038;-66
2021/10/15 03:41:44;;;;;;;10.23;6.13;;;;;;;;;;5004481;28;20061;-66
2021/10/15 03:44:29;;;;;;;10.73;6.15;;;;;;;;;;5020425;28;20076;-65
2021/10/15 03:47:15;;;;;;;13.60;6.82;;;;;;;;;;5011947;28;20366;-66
2021/10/15 03:50:01;;;;;;;10.10;6.97;;;;;;;;;;5010113;28;20479;-66
2021/10/15 03:52:46;;;;;;;13.32;7.10;;;;;;;;;;5012945;28;20038;-70
2021/10/15 03:55:32;;;;;;;11.23;6.18;;;;;;;;;;4997541;28;20128;-71
2021/10/15 03:58:18;;;;;;;10.13;5.82;;;;;;;;;;5011257;28;20088;-72
2021/10/15 04:01:03;;;;;;;11.88;6.82;;;;;;;;;;5028216;28;20037;-73
2021/10/15 04:03:49;;;;;;;12.52;7.07;;;;;;;;;;4997733;28;20511;-71
2021/10/15 04:06:34;;;;;;;9.75;5.82;;;;;;;;;;5011990;28;20046;-72
2021/10/15 04:09:20;;;;;;;11.90;6.47;;;;;;;;;;5010195;28;20121;-71
2021/10/15 04:12:06;;;;;;;10.23;5.93;;;;;;;;;;5010929;28;20045;-69
2021/10/15 04:14:51;;;;;;;8.68;7.05;;;;;;;;;;5029114;28;20391;-69
2021/10/15 04:17:37;;;;;;;10.02;7.57;;;;;;;;;;5030160;28;20026;-69
2021/10/15 04:20:23;;;;;;;11.75;7.68;;;;;;;;;;5028440;28;20492;-69
2021/10/15 04:23:08;;;;;;;11.05;7.35;;;;;;;;;;5030792;28;20033;-71
2021/10/15 04:25:54;;;;;;;12.88;7.60;;;;;;;;;;4981058;28;20370;-70
2021/10/15 04:28:39;;;;;;;12.32;6.88;;;;;;;;;;5006559;28;20023;-70
2021/10/15 04:31:25;;;;;;;12.82;6.80;;;;;;;;;;5009218;28;20032;-65
2021/10/15 04:34:10;;;;;;;10.55;6.32;;;;;;;;;;5030646;28;20116;-66
2021/10/15 04:36:56;;;;;;;10.80;6.22;;;;;;;;;;5029441;28;20033;-65
2021/10/15 04:39:42;;;;;;;12.25;6.25;;;;;;;;;;5013383;28;20030;-65
2021/10/15 04:42:27;;;;;;;11.88;7.45;;;;;;;;;;5004352;28;20029;-66
2021/10/15 04:45:13;;;;;;;13.32;7.13;;;;;;;;;;5017602;28;20109;-66
2021/10/15 04:47:58;;;;;;;13.40;7.38;;;;;;;;;;4996503;28;20113;-74
2021/10/15 04:50:44;;;;;;;9.80;6.32;;;;;;;;;;4994289;28;20042;-71
2021/10/15 04:53:30;;;;;;;9.80;6.60;;;;;;;;;;5010680;28;20022;-70
2021/10/15 04:56:15;;;;;;;11.32;6.53;;;;;;;;;;5015143;28;20033;-70
2021/10/15 04:59:01;;;;;;;10.70;6.65;;;;;;;;;;5014914;28;20113;-70
2021/10/15 05:01:47;;;;;;;10.90;6.85;;;;;;;;;;5031816;28;20171;-70
2021/10/15 05:04:32;;;;;;;11.02;6.20;;;;;;;;;;5000361;28;20116;-69
2021/10/15 05:07:18;;;;;;;11.30;6.47;;;;;;;;;;5008360;28;20045;-70
2021/10/15 05:10:04;;;;;;;9.85;5.88;;;;;;;;;;5023832;28;20436;-73
2021/10/15 05:12:50;;;;;;;12.98;7.13;;;;;;;;;;4999873;28;20044;-73
2021/10/15 05:15:36;;;;;;;10.85;6.53;;;;;;;;;;5013532;28;20032;-73
2021/10/15 05:18:21;;;;;;;12.15;7.50;;;;;;;;;;5034751;28;20034;-74
2021/10/15 05:21:07;;;;;;;11.93;7.05;;;;;;;;;;5034387;28;20105;-74
2021/10/15 05:23:53;;;;;;;11.30;7.13;;;;;;;;;;5037471;28;20034;-73
2021/10/15 05:26:38;;;;;;;12.20;7.25;;;;;;;;;;5035464;28;20046;-67
2021/10/15 05:29:24;;;;;;;9.68;6.05;;;;;;;;;;5034869;28;20030;-71
2021/10/15 05:32:09;;;;;;;11.32;7.28;;;;;;;;;;5011762;28;20029;-72
2021/10/15 05:34:55;;;;;;;14.20;7.47;;;;;;;;;;5014112;28;20034;-71
2021/10/15 05:37:41;;;;;;;11.02;7.00;;;;;;;;;;5013643;28;21241;-72
2021/10/15 05:40:26;;;;;;;11.45;6.47;;;;;;;;;;5030841;28;20042;-71
2021/10/15 05:43:12;;;;;;;17.25;10.35;;;;;;;;;;5013568;28;20026;-66
2021/10/15 05:45:57;;;;;;;13.02;8.70;;;;;;;;;;5014147;28;20046;-64
2021/10/15 05:48:43;;;;;;;12.80;7.53;;;;;;;;;;5014650;28;20056;-67
2021/10/15 05:51:30;;;;;;;11.48;6.75;;;;;;;;;;5016917;28;20017;-67
2021/10/15 05:54:27;;;;;;;10.98;7.05;;;;;;;;;;5003993;28;20021;-67
2021/10/15 06:00:33;;;;;;;12.45;7.13;;;;;;;;;;4959764;28;20041;-67
2021/10/15 06:03:23;;;;;;;11.30;7.10;;;;;;;;;;5014822;28;20034;-71
2021/10/15 06:07:13;;;;;;;18.10;8.48;;;;;;;;;;5012309;28;20030;-74
2021/10/15 06:15:32;;;;;;;13.25;7.68;;;;;;;;;;5026385;28;20379;-76
2021/10/15 06:18:20;;;;;;;19.00;12.48;;;;;;;;;;5031957;28;20028;-74
2021/10/15 06:21:06;;;;;;;34.13;22.33;;;;;;;;;;5005047;28;20067;-69
2021/10/15 06:23:53;;;;;;;13.48;8.77;;;;;;;;;;5008016;28;20431;-72
2021/10/15 06:26:39;;;;;;;12.93;7.22;;;;;;;;;;4997932;28;20033;-72
2021/10/15 06:29:24;;;;;;;12.48;7.45;;;;;;;;;;5029993;28;20125;-72
2021/10/15 06:32:10;;;;;;;10.95;6.28;;;;;;;;;;5013765;28;20026;-72
2021/10/15 06:34:55;;;;;;;11.80;6.65;;;;;;;;;;5032740;28;20025;-71
2021/10/15 06:37:41;;;;;;;9.23;6.28;;;;;;;;;;5029900;28;20029;-72
2021/10/15 06:40:27;;;;;;;10.00;6.85;;;;;;;;;;5031265;28;20333;-68
2021/10/15 06:43:13;;;;;;;12.35;7.38;;;;;;;;;;4998042;28;20382;-63
2021/10/15 06:45:58;;;;;;;10.07;6.80;;;;;;;;;;5013462;28;20044;-64
2021/10/15 06:48:44;;;;;;;13.88;8.90;;;;;;;;;;5011484;28;20112;-64
2021/10/15 06:51:29;;;;;;;13.85;7.93;;;;;;;;;;5010907;28;20030;-65
2021/10/15 06:54:15;;;;;;;12.25;7.45;;;;;;;;;;5029369;28;20074;-65
2021/10/15 06:57:02;;;;;;;39.00;28.60;;;;;;;;;;5018631;28;20116;-71
2021/10/15 06:59:48;;;;;;;16.38;10.45;;;;;;;;;;5011207;28;20065;-68
2021/10/15 07:02:33;;;;;;;13.45;8.57;;;;;;;;;;5013013;28;20022;-68
2021/10/15 07:05:19;;;;;;;12.10;7.90;;;;;;;;;;5013956;28;20088;-69
2021/10/15 07:08:04;;;;;;;12.60;8.77;;;;;;;;;;5015201;28;20025;-69
2021/10/15 07:10:50;;;;;;;19.27;8.93;;;;;;;;;;5012114;28;20038;-69
2021/10/15 07:13:36;;;;;;;11.98;8.13;;;;;;;;;;5013077;28;20111;-68
2021/10/15 07:16:21;;;;;;;13.20;7.88;;;;;;;;;;5011874;28;20030;-70
2021/10/15 07:19:07;;;;;;;12.27;7.68;;;;;;;;;;5031215;28;20145;-64
2021/10/15 07:21:53;;;;;;;11.35;8.30;;;;;;;;;;5013036;28;20044;-65
2021/10/15 07:24:38;;;;;;;11.60;7.97;;;;;;;;;;5031853;28;20033;-66
2021/10/15 07:27:24;;;;;;;17.88;11.60;;;;;;;;;;5029393;28;20439;-65
2021/10/15 07:30:10;;;;;;;11.55;8.52;;;;;;;;;;5017045;28;20468;-65
2021/10/15 07:32:56;;;;;;;11.23;7.20;;;;;;;;;;5027274;28;20033;-65
2021/10/15 07:35:42;;;;;;;11.85;7.68;;;;;;;;;;5030587;28;20025;-68
2021/10/15 07:38:28;;;;;;;13.35;7.50;;;;;;;;;;5031773;28;20099;-74
2021/10/15 07:41:13;;;;;;;12.75;7.43;;;;;;;;;;5031072;28;20033;-71
2021/10/15 07:43:59;;;;;;;12.90;8.70;;;;;;;;;;5030273;28;20041;-77
2021/10/15 07:46:44;;;;;;;12.82;9.10;;;;;;;;;;5014096;28;20122;-69
2021/10/15 07:49:30;;;;;;;19.52;8.98;;;;;;;;;;5017573;28;20076;-72
2021/10/15 07:52:16;;;;;;;15.55;10.30;;;;;;;;;;5004603;28;20022;-70
2021/10/15 07:55:01;;;;;;;15.95;10.45;;;;;;;;;;5025869;28;20498;-69
2021/10/15 07:57:47;;;;;;;11.27;7.13;;;;;;;;;;5029764;28;20376;-70
2021/10/15 08:00:33;;;;;;;12.38;6.72;;;;;;;;;;5031435;28;20463;-68
2021/10/15 08:03:18;;;;;;;9.80;6.38;;;;;;;;;;5014313;28;20110;-69
2021/10/15 08:06:04;;;;;;;10.10;6.80;;;;;;;;;;5030668;28;20469;-70
2021/10/15 08:08:51;;;;;;;9.45;6.65;;;;;;;;;;5016706;28;20033;-70
2021/10/15 08:11:37;;;;;;;9.35;6.80;;;;;;;;;;5016481;28;20431;-71
2021/10/15 08:14:22;;;;;;;9.27;7.03;;;;;;;;;;5021184;28;20034;-72
2021/10/15 08:17:08;;;;;;;11.80;7.35;;;;;;;;;;5011549;28;20026;-71
2021/10/15 08:19:54;;;;;;;18.52;14.98;;;;;;;;;;5011681;28;20033;-71
2021/10/15 08:22:39;;;;;;;89.85;66.35;;;;;;;;;;4995156;28;20367;-72
2021/10/15 08:25:26;;;;;;;18.75;14.65;;;;;;;;;;5018780;28;20033;-72
2021/10/15 08:28:12;;;;;;;11.43;7.28;;;;;;;;;;5002834;28;20026;-76
2021/10/15 08:30:57;;;;;;;11.80;7.13;;;;;;;;;;5015127;28;20033;-70
2021/10/15 08:33:43;;;;;;;12.68;7.72;;;;;;;;;;5015535;28;20477;-69
2021/10/15 08:36:28;;;;;;;9.60;5.65;;;;;;;;;;5021817;28;20033;-70
2021/10/15 08:39:17;;;;;;;10.90;5.90;;;;;;;;;;5019171;28;20029;-70
2021/10/15 08:42:03;;;;;;;11.68;6.53;;;;;;;;;;5034034;28;20029;-71
2021/10/15 08:44:48;;;;;;;12.20;7.07;;;;;;;;;;5014054;28;20160;-69
2021/10/15 08:47:34;;;;;;;10.60;6.82;;;;;;;;;;5014749;28;20037;-70
2021/10/15 08:50:20;;;;;;;12.57;8.15;;;;;;;;;;5000456;28;20029;-69
2021/10/15 08:53:07;;;;;;;9.93;7.72;;;;;;;;;;5029818;28;20104;-70
2021/10/15 08:55:52;;;;;;;10.68;6.80;;;;;;;;;;5033386;28;20483;-68
2021/10/15 08:58:45;;;;;;;10.23;7.25;;;;;;;;;;5033920;28;20025;-72
2021/10/15 09:01:41;;;;;;;21.40;14.93;;;;;;;;;;5032641;28;20108;-71
2021/10/15 09:04:26;;;;;;;9.68;6.22;;;;;;;;;;5000073;28;20029;-70
2021/10/15 09:07:12;;;;;;;11.23;5.47;;;;;;;;;;5015844;28;20054;-72
2021/10/15 09:10:09;;;;;;;10.70;5.15;;;;;;;;;;4996481;28;20034;-71
2021/10/15 09:12:57;;;;;;;10.77;5.65;;;;;;;;;;5012861;28;20122;-70
2021/10/15 09:15:44;;;;;;;7.45;4.22;;;;;;;;;;5034131;28;20103;-71
2021/10/15 09:18:30;;;;;;;11.80;6.28;;;;;;;;;;5014550;28;21283;-68
2021/10/15 09:21:16;;;;;;;16.35;10.40;;;;;;;;;;5014774;28;20030;-67
2021/10/15 09:24:02;;;;;;;8.15;5.03;;;;;;;;;;5014086;28;20104;-63
2021/10/15 09:26:48;;;;;;;9.32;4.47;;;;;;;;;;5000178;28;20026;-65
2021/10/15 09:29:44;;;;;;;7.10;4.78;;;;;;;;;;5011713;28;20469;-75
2021/10/15 09:32:32;;;;;;;8.63;4.47;;;;;;;;;;4994907;28;20030;-72
2021/10/15 09:35:19;;;;;;;8.88;5.45;;;;;;;;;;5001414;28;20030;-73
2021/10/15 09:38:06;;;;;;;9.20;5.72;;;;;;;;;;5006754;28;20034;-74
2021/10/15 09:40:52;;;;;;;14.45;7.80;;;;;;;;;;5029117;28;20025;-73
2021/10/15 09:50:28;;;;;;;11.50;6.57;;;;;;;;;;5032785;28;20480;-71
2021/10/15 09:53:14;;;;;;;10.68;6.15;;;;;;;;;;5032154;28;20148;-75
2021/10/15 09:55:59;;;;;;;11.48;7.38;;;;;;;;;;5033649;28;20072;-72
2021/10/15 09:58:52;;;;;;;10.93;7.22;;;;;;;;;;5016331;28;20116;-75
2021/10/15 10:01:38;;;;;;;12.88;7.40;;;;;;;;;;5032167;28;20026;-67
2021/10/15 10:04:24;;;;;;;14.70;6.22;;;;;;;;;;5021742;28;20030;-70
2021/10/15 10:07:09;;;;;;;12.23;6.35;;;;;;;;;;5014093;28;20136;-70
2021/10/15 10:09:55;;;;;;;10.10;5.40;;;;;;;;;;5021989;28;20047;-69
2021/10/15 10:12:41;;;;;;;15.20;5.53;;;;;;;;;;5012069;28;20498;-63
2021/10/15 10:15:28;;;;;;;8.32;5.30;;;;;;;;;;5014137;28;20074;-61
2021/10/15 10:18:19;;;;;;;11.40;5.72;;;;;;;;;;5014609;28;20058;-61
2021/10/15 10:21:17;;;;;;;8.38;5.32;;;;;;;;;;5011995;28;20034;-59
2021/10/15 10:24:07;;;;;;;9.15;6.95;;;;;;;;;;5009726;28;20037;-62
2021/10/15 10:26:55;;;;;;;14.73;8.48;;;;;;;;;;5012318;28;20060;-62
2021/10/15 10:29:44;;;;;;;12.52;6.18;;;;;;;;;;5013897;28;20037;-62
2021/10/15 10:32:30;;;;;;;10.02;4.97;;;;;;;;;;5031508;28;20112;-62
2021/10/15 10:35:28;;;;;;;7.43;4.10;;;;;;;;;;5013438;28;20045;-62
2021/10/15 10:38:19;;;;;;;7.30;4.18;;;;;;;;;;5012814;28;20496;-62
2021/10/15 10:41:05;;;;;;;9.80;3.92;;;;;;;;;;5014247;28;20481;-64
2021/10/15 10:43:50;;;;;;;9.35;4.28;;;;;;;;;;5013623;28;20052;-63
2021/10/15 10:46:37;;;;;;;10.63;5.03;;;;;;;;;;5012852;28;20034;-65
2021/10/15 10:49:22;;;;;;;7.43;5.07;;;;;;;;;;5013329;28;20052;-63
2021/10/15 10:52:10;;;;;;;6.55;3.40;;;;;;;;;;5012523;28;20033;-65
2021/10/15 10:54:56;;;;;;;8.75;3.90;;;;;;;;;;4998068;28;20041;-65
2021/10/15 10:57:41;;;;;;;5.43;3.53;;;;;;;;;;5013146;28;20021;-62
2021/10/15 11:00:28;;;;;;;6.53;3.80;;;;;;;;;;5012711;28;20493;-72
2021/10/15 11:03:31;;;;;;;5.55;3.72;;;;;;;;;;5012423;28;20034;-69
2021/10/15 11:06:16;;;;;;;6.55;4.07;;;;;;;;;;5009235;28;20041;-70
2021/10/15 11:09:22;;;;;;;9.73;4.07;;;;;;;;;;4999800;28;20057;-68
2021/10/15 11:12:12;;;;;;;9.50;4.30;;;;;;;;;;5010765;28;20034;-71
2021/10/15 11:14:57;;;;;;;6.38;3.80;;;;;;;;;;4997525;28;20124;-74
2021/10/15 11:17:48;;;;;;;7.40;3.85;;;;;;;;;;5001721;28;20050;-66
2021/10/15 11:20:35;;;;;;;8.32;4.57;;;;;;;;;;5023215;28;20157;-65
2021/10/15 11:23:20;;;;;;;7.13;4.05;;;;;;;;;;5012153;28;20037;-63
2021/10/15 11:26:06;;;;;;;8.95;4.97;;;;;;;;;;5011749;28;20041;-65
2021/10/15 11:28:55;;;;;;;8.13;4.88;;;;;;;;;;5031778;28;20120;-66
2021/10/15 11:31:50;;;;;;;8.48;4.78;;;;;;;;;;5003451;28;20021;-64
2021/10/15 11:34:36;;;;;;;7.85;4.78;;;;;;;;;;5017691;28;20033;-69
2021/10/15 11:37:39;;;;;;;8.00;4.15;;;;;;;;;;5014333;28;20034;-73
2021/10/15 11:40:29;;;;;;;7.78;3.53;;;;;;;;;;5012250;28;20037;-74
2021/10/15 11:43:22;;;;;;;8.32;4.32;;;;;;;;;;5013979;28;20033;-76
2021/10/15 11:46:10;;;;;;;7.93;4.07;;;;;;;;;;5010992;28;20559;-75
2021/10/15 11:48:55;;;;;;;8.75;3.58;;;;;;;;;;5010133;28;20030;-77
2021/10/15 11:51:41;;;;;;;6.70;4.25;;;;;;;;;;5011388;28;20380;-77
2021/10/15 11:54:26;;;;;;;8.35;4.07;;;;;;;;;;5002508;28;20030;-69
2021/10/15 11:57:19;;;;;;;6.97;3.70;;;;;;;;;;5019489;28;20154;-69
2021/10/15 12:00:08;;;;;;;5.25;3.33;;;;;;;;;;5031555;28;20072;-71
2021/10/15 12:02:54;;;;;;;5.93;3.95;;;;;;;;;;4997067;28;20030;-70
2021/10/15 12:05:40;;;;;;;6.85;2.92;;;;;;;;;;5016008;28;20030;-73
2021/10/15 12:08:25;;;;;;;6.35;3.33;;;;;;;;;;5015924;28;20117;-72
2021/10/15 12:11:16;;;;;;;5.72;3.40;;;;;;;;;;5025918;28;20049;-64
2021/10/15 12:14:02;;;;;;;9.18;3.45;;;;;;;;;;5033139;28;20037;-70
2021/10/15 12:16:48;;;;;;;5.35;3.22;;;;;;;;;;5015963;28;20046;-69
2021/10/15 12:19:38;;;;;;;8.45;3.78;;;;;;;;;;5021875;28;20140;-69
2021/10/15 12:22:27;;;;;;;5.97;3.28;;;;;;;;;;5032722;28;20495;-71
2021/10/15 12:25:13;;;;;;;;;;;;;;;;;;5021624;28;20040;-70
2021/10/15 12:28:09;;;;;;;8.50;3.50;;;;;;;;;;5032767;28;19918;-69
2021/10/15 12:30:55;;;;;;;4.75;3.20;;;;;;;;;;5011579;28;20374;-64
2021/10/15 12:33:58;;;;;;;4.80;3.33;;;;;;;;;;5026391;28;20087;-74
2021/10/15 12:36:44;;;;;;;7.28;3.85;;;;;;;;;;5034916;28;20076;-75
2021/10/15 12:39:29;;;;;;;11.02;3.38;;;;;;;;;;5035011;28;20365;-74
2021/10/15 12:42:15;;;;;;;4.20;3.00;;;;;;;;;;5032285;28;20025;-75
2021/10/15 12:45:04;;;;;;;6.72;3.90;;;;;;;;;;5033146;28;20099;-76
2021/10/15 12:47:56;;;;;;;6.25;3.85;;;;;;;;;;5034490;28;20057;-65
2021/10/15 12:50:43;;;;;;;6.65;3.60;;;;;;;;;;5014324;28;20040;-63
2021/10/15 12:53:36;;;;;;;5.97;3.05;;;;;;;;;;5020801;28;20467;-63
2021/10/15 12:56:30;;;;;;;10.05;3.67;;;;;;;;;;5031949;28;20356;-65
2021/10/15 12:59:19;;;;;;;6.35;3.25;;;;;;;;;;5029995;28;20100;-65
2021/10/15 13:02:05;;;;;;;4.65;3.30;;;;;;;;;;5032552;28;20026;-64
2021/10/15 13:04:51;;;;;;;7.97;3.67;;;;;;;;;;5032942;28;20029;-71
2021/10/15 13:07:38;;;;;;;8.57;3.58;;;;;;;;;;5033594;28;20120;-72
2021/10/15 13:10:24;;;;;;;5.57;3.40;;;;;;;;;;5001037;28;20116;-64
2021/10/15 13:13:09;;;;;;;5.18;3.55;;;;;;;;;;5014824;28;20030;-63
2021/10/15 13:15:55;;;;;;;5.13;3.58;;;;;;;;;;5012773;28;20048;-64
2021/10/15 13:18:41;;;;;;;9.45;3.53;;;;;;;;;;5014348;28;20496;-67
2021/10/15 13:21:26;;;;;;;9.70;4.18;;;;;;;;;;5013173;28;20113;-65
2021/10/15 13:24:12;;;;;;;6.80;3.65;;;;;;;;;;5015215;28;20129;-72
2021/10/15 13:26:57;;;;;;;10.38;3.30;;;;;;;;;;5013853;28;20132;-72
2021/10/15 13:29:43;;;;;;;7.53;3.80;;;;;;;;;;5006320;28;20026;-71
2021/10/15 13:32:29;;;;;;;7.50;4.00;;;;;;;;;;5032974;28;20028;-72
2021/10/15 13:35:14;;;;;;;11.27;3.72;;;;;;;;;;5016062;28;20053;-72
2021/10/15 13:38:05;;;;;;;10.50;3.70;;;;;;;;;;5016760;28;20462;-72
2021/10/15 13:44:12;;;;;;;10.38;4.32;;;;;;;;;;5013949;28;20432;-66
2021/10/15 13:47:19;;;;;;;5.32;3.55;;;;;;;;;;5005740;28;20076;-74
2021/10/15 13:50:05;;;;;;;5.15;3.13;;;;;;;;;;5019974;28;20034;-74
2021/10/15 13:52:51;;;;;;;8.27;3.25;;;;;;;;;;5027999;28;20345;-75
2021/10/15 13:55:44;;;;;;;6.78;3.50;;;;;;;;;;5033509;28;20045;-71
2021/10/15 13:58:37;;;;;;;6.75;3.83;;;;;;;;;;5031971;28;20041;-73
2021/10/15 14:01:30;;;;;;;6.03;3.83;;;;;;;;;;5032244;28;20025;-67
2021/10/15 14:04:27;;;;;;;5.60;3.42;;;;;;;;;;5031943;28;20033;-64
2021/10/15 14:07:15;;;;;;;5.53;3.00;;;;;;;;;;5014875;28;20034;-67
2021/10/15 14:10:00;;;;;;;6.45;2.92;;;;;;;;;;5013075;28;20069;-62
2021/10/15 14:12:46;;;;;;;9.35;3.67;;;;;;;;;;5012748;28;20437;-60
2021/10/15 14:15:32;;;;;;;9.43;3.55;;;;;;;;;;5012135;28;20030;-61
2021/10/15 14:18:17;;;;;;;8.02;3.70;;;;;;;;;;5013143;28;20476;-66
2021/10/15 14:21:03;;;;;;;5.95;3.28;;;;;;;;;;5013255;28;20123;-70
2021/10/15 14:23:48;;;;;;;6.05;3.05;;;;;;;;;;5009347;28;20170;-74
2021/10/15 14:26:34;;;;;;;6.68;3.22;;;;;;;;;;5027431;28;20045;-74
2021/10/15 14:29:20;;;;;;;4.88;3.20;;;;;;;;;;5011045;28;20029;-74
2021/10/15 14:32:05;;;;;;;8.15;3.70;;;;;;;;;;5018296;28;20025;-73
2021/10/15 14:34:51;;;;;;;7.05;3.63;;;;;;;;;;4999160;28;20033;-74
2021/10/15 14:37:37;;;;;;;5.32;3.47;;;;;;;;;;5026350;28;20045;-80
2021/10/15 14:40:22;;;;;;;11.63;4.90;;;;;;;;;;5026895;28;20103;-67
2021/10/15 14:43:09;;;;;;;7.00;3.33;;;;;;;;;;5028962;28;20034;-68
2021/10/15 14:45:55;;;;;;;5.72;3.03;;;;;;;;;;5005141;28;20045;-66
2021/10/15 14:48:41;;;;;;;7.03;3.30;;;;;;;;;;5022364;28;20508;-67
2021/10/15 14:51:27;;;;;;;5.80;3.20;;;;;;;;;;5013911;28;20049;-66
2021/10/15 14:54:12;;;;;;;7.88;3.85;;;;;;;;;;4994950;28;20022;-65
2021/10/15 14:56:58;;;;;;;4.55;2.88;;;;;;;;;;5010603;28;20052;-76
2021/10/15 14:59:44;;;;;;;7.35;2.67;;;;;;;;;;4998022;28;20060;-69
2021/10/15 15:02:30;;;;;;;5.15;3.30;;;;;;;;;;5029455;28;20048;-70
2021/10/15 15:05:15;;;;;;;7.00;5.10;;;;;;;;;;5012405;28;20469;-70
2021/10/15 15:08:02;;;;;;;8.10;5.20;;;;;;;;;;5003172;28;20052;-70
2021/10/15 15:10:47;;;;;;;10.70;4.38;;;;;;;;;;5011942;28;20092;-70
2021/10/15 15:13:34;;;;;;;7.97;4.13;;;;;;;;;;5012452;28;20111;-71
2021/10/15 15:16:23;;;;;;;7.18;3.30;;;;;;;;;;5011488;28;20026;-72
2021/10/15 15:19:08;;;;;;;6.05;3.15;;;;;;;;;;4997796;28;20033;-65
2021/10/15 15:21:56;;;;;;;4.30;2.47;;;;;;;;;;5019326;28;20057;-65
2021/10/15 15:24:42;;;;;;;5.10;3.55;;;;;;;;;;5011179;28;20049;-65
2021/10/15 15:27:28;;;;;;;6.85;3.45;;;;;;;;;;5012441;28;20045;-67
2021/10/15 15:30:14;;;;;;;3.65;2.60;;;;;;;;;;5000677;28;20025;-65
2021/10/15 15:32:59;;;;;;;4.03;2.60;;;;;;;;;;5022587;28;20034;-72
2021/10/15 15:35:54;;;;;;;4.07;2.53;;;;;;;;;;5010813;28;20069;-72
2021/10/15 15:38:40;;;;;;;5.75;2.25;;;;;;;;;;5011539;28;20022;-75
2021/10/15 15:41:25;;;;;;;4.38;2.17;;;;;;;;;;5013252;28;20133;-74
2021/10/15 15:44:25;;;;;;;4.25;2.90;;;;;;;;;;5011629;28;20041;-77
2021/10/15 15:47:16;;;;;;;4.90;3.28;;;;;;;;;;5012660;28;20071;-76
2021/10/15 15:50:02;;;;;;;6.32;3.95;;;;;;;;;;5013736;28;20037;-77
2021/10/15 15:52:49;;;;;;;6.03;4.20;;;;;;;;;;5032676;28;20030;-71
2021/10/15 15:55:36;;;;;;;5.65;3.50;;;;;;;;;;5032211;28;20029;-63
2021/10/15 15:58:22;;;;;;;7.40;3.85;;;;;;;;;;5007518;28;20022;-63
2021/10/15 16:01:08;;;;;;;6.13;3.67;;;;;;;;;;5030235;28;20065;-63
2021/10/15 16:03:54;;;;;;;5.63;3.67;;;;;;;;;;5028180;28;20072;-62
2021/10/15 16:06:40;;;;;;;6.47;4.13;;;;;;;;;;5011616;28;20444;-64
2021/10/15 16:09:26;;;;;;;4.53;3.60;;;;;;;;;;5011380;28;20507;-68
2021/10/15 16:12:11;;;;;;;5.32;3.13;;;;;;;;;;5023351;28;20083;-71
2021/10/15 16:14:57;;;;;;;4.85;2.30;;;;;;;;;;5014624;28;20026;-72
2021/10/15 16:17:42;;;;;;;8.45;4.10;;;;;;;;;;5011217;28;20358;-72
2021/10/15 16:20:28;;;;;;;5.50;3.55;;;;;;;;;;5012173;28;20413;-71
2021/10/15 16:23:13;;;;;;;6.50;3.80;;;;;;;;;;5012269;28;20436;-70
2021/10/15 16:25:59;;;;;;;7.25;3.70;;;;;;;;;;5030460;28;20478;-71
2021/10/15 16:28:45;;;;;;;6.60;3.75;;;;;;;;;;5033116;28;20032;-67
2021/10/15 16:31:30;;;;;;;7.18;3.72;;;;;;;;;;5028200;28;20472;-66
2021/10/15 16:34:17;;;;;;;6.43;3.72;;;;;;;;;;5031414;28;20379;-66
2021/10/15 16:37:02;;;;;;;5.22;3.55;;;;;;;;;;5032312;28;20498;-68
2021/10/15 16:39:49;;;;;;;7.07;3.83;;;;;;;;;;5017457;28;20056;-66
2021/10/15 16:42:34;;;;;;;7.75;4.53;;;;;;;;;;5031098;28;20040;-68
2021/10/15 16:45:20;;;;;;;4.72;3.33;;;;;;;;;;5030753;28;20029;-67
2021/10/15 16:48:08;;;;;;;5.78;3.45;;;;;;;;;;5011231;28;20033;-63
2021/10/15 16:50:54;;;;;;;7.10;4.03;;;;;;;;;;5029650;28;20025;-70